Time;durP1;ratioP1;P1;durP2;ratioP2;P2;SDS_P1;SDS_P2;PMS_P1;PMS_P2;Temp;Humidity;BMP_temperature;BMP_pressure;BME280_temperature;BME280_humidity;BME280_pressure;Samples;Min_cycle;Max_cycle;Signal;HPM_P1;HPM_P2
2023/05/27 00:01:03;;;;;;;7.38;6.40;;;19.20;96.20;;;;;;6179852;22;20005;-56
2023/05/27 00:03:28;;;;;;;6.13;5.53;;;19.20;96.00;;;;;;6180884;22;20012;-55
2023/05/27 00:05:54;;;;;;;7.10;6.40;;;19.20;95.90;;;;;;6180970;22;20417;-55
2023/05/27 00:08:20;;;;;;;6.47;5.88;;;19.30;95.60;;;;;;6179359;22;20075;-55
2023/05/27 00:10:47;;;;;;;6.65;5.93;;;19.30;95.40;;;;;;6181097;22;20001;-55
2023/05/27 00:13:12;;;;;;;6.65;5.80;;;19.20;95.20;;;;;;6180957;22;20005;-53
2023/05/27 00:15:40;;;;;;;6.18;5.57;;;19.30;95.00;;;;;;6180311;22;20127;-55
2023/05/27 00:18:06;;;;;;;6.85;6.15;;;19.20;94.90;;;;;;6181252;22;20107;-55
2023/05/27 00:20:32;;;;;;;6.63;5.90;;;19.20;94.80;;;;;;6180727;22;20012;-54
2023/05/27 00:23:01;;;;;;;7.03;6.32;;;19.20;94.90;;;;;;6179505;22;20013;-55
2023/05/27 00:25:27;;;;;;;6.90;5.82;;;19.20;95.00;;;;;;6180422;23;20001;-58
2023/05/27 00:27:54;;;;;;;7.10;6.22;;;19.20;95.10;;;;;;6180733;23;20508;-57
2023/05/27 00:30:20;;;;;;;5.95;5.43;;;19.20;95.20;;;;;;6181310;22;20469;-57
2023/05/27 00:32:46;;;;;;;6.78;6.07;;;19.10;95.20;;;;;;6180174;22;20083;-55
2023/05/27 00:35:12;;;;;;;6.53;5.80;;;19.10;95.20;;;;;;6180569;22;20008;-57
2023/05/27 00:37:38;;;;;;;6.72;6.03;;;19.10;95.20;;;;;;6179153;22;20013;-56
2023/05/27 00:40:07;;;;;;;6.85;6.13;;;19.10;95.10;;;;;;6178933;22;20315;-55
2023/05/27 00:42:32;;;;;;;7.00;5.70;;;19.10;95.20;;;;;;6178604;22;20001;-56
2023/05/27 00:44:58;;;;;;;7.10;6.25;;;19.10;95.00;;;;;;6179681;22;20009;-53
2023/05/27 00:47:28;;;;;;;6.57;5.47;;;19.10;94.90;;;;;;6180300;22;20004;-55
2023/05/27 00:49:53;;;;;;;7.18;5.60;;;19.10;94.90;;;;;;6179891;22;20425;-55
2023/05/27 00:52:19;;;;;;;6.97;6.00;;;19.10;94.80;;;;;;6179189;22;20076;-55
2023/05/27 00:54:45;;;;;;;6.72;5.95;;;19.10;94.80;;;;;;6181079;22;20318;-57
2023/05/27 00:57:11;;;;;;;7.15;6.25;;;19.10;94.80;;;;;;6180559;22;20011;-55
2023/05/27 00:59:37;;;;;;;6.80;6.10;;;19.10;94.90;;;;;;6179732;22;20036;-55
2023/05/27 01:02:02;;;;;;;6.82;6.13;;;19.00;95.10;;;;;;6178855;22;19997;-55
2023/05/27 01:04:28;;;;;;;7.43;6.72;;;19.00;95.30;;;;;;6180268;22;20036;-54
2023/05/27 01:07:06;;;;;;;7.10;6.40;;;19.00;95.50;;;;;;6180702;22;20001;-55
2023/05/27 01:09:58;;;;;;;7.25;6.55;;;19.10;95.30;;;;;;6180695;22;20008;-55
2023/05/27 01:12:44;;;;;;;7.47;6.72;;;19.00;95.50;;;;;;6284287;22;20464;-56
2023/05/27 01:15:10;;;;;;;8.63;7.22;;;19.10;95.20;;;;;;6180436;22;20004;-58
2023/05/27 01:17:42;;;;;;;8.55;6.55;;;19.00;95.40;;;;;;6179332;22;20139;-55
2023/05/27 01:20:13;;;;;;;7.82;7.03;;;19.00;95.40;;;;;;6180679;22;20005;-55
2023/05/27 01:22:41;;;;;;;;;;;19.00;95.50;;;;;;6181422;22;20016;-54
2023/05/27 01:25:07;;;;;;;8.35;7.55;;;18.90;95.10;;;;;;6180060;22;19911;-55
2023/05/27 01:27:33;;;;;;;7.82;6.93;;;18.90;95.60;;;;;;6180716;22;20005;-55
2023/05/27 01:30:00;;;;;;;9.35;6.95;;;18.90;95.70;;;;;;6180496;22;20001;-55
2023/05/27 01:32:38;;;;;;;10.13;9.13;;;18.90;95.60;;;;;;6179714;22;20093;-55
2023/05/27 01:35:29;;;;;;;8.57;7.47;;;18.90;95.50;;;;;;6180203;22;20130;-55
2023/05/27 01:37:57;;;;;;;8.40;7.50;;;18.90;95.50;;;;;;6180145;23;20001;-56
2023/05/27 01:40:24;;;;;;;8.00;7.20;;;18.90;95.70;;;;;;6180001;22;20247;-54
2023/05/27 01:42:50;;;;;;;7.28;6.57;;;18.90;95.70;;;;;;6180002;22;20009;-56
2023/05/27 01:45:16;;;;;;;8.07;7.38;;;18.90;95.80;;;;;;6181100;22;20009;-57
2023/05/27 01:47:45;;;;;;;8.32;7.53;;;18.80;95.80;;;;;;6180928;22;20001;-55
2023/05/27 01:50:10;;;;;;;8.52;7.72;;;18.80;95.80;;;;;;6179825;22;20417;-57
2023/05/27 01:52:36;;;;;;;8.38;7.50;;;18.80;96.00;;;;;;6181388;22;20009;-54
2023/05/27 01:55:04;;;;;;;8.90;8.00;;;18.80;96.10;;;;;;6179915;22;20008;-55
2023/05/27 01:57:30;;;;;;;8.98;8.07;;;18.80;96.20;;;;;;6180440;22;20085;-57
2023/05/27 01:59:55;;;;;;;9.48;8.48;;;18.90;96.30;;;;;;6180879;22;20009;-54
2023/05/27 02:02:21;;;;;;;9.25;8.00;;;18.90;96.40;;;;;;6179464;22;20012;-56
2023/05/27 02:04:47;;;;;;;9.07;8.18;;;18.90;96.40;;;;;;6179221;22;20005;-55
2023/05/27 02:07:12;;;;;;;8.60;7.40;;;18.90;96.40;;;;;;6179023;22;20035;-55
2023/05/27 02:09:38;;;;;;;9.00;7.78;;;18.90;96.30;;;;;;6179876;22;20005;-55
2023/05/27 02:12:05;;;;;;;8.23;7.40;;;18.90;96.20;;;;;;6180698;22;20535;-55
2023/05/27 02:14:31;;;;;;;9.07;8.18;;;18.90;96.20;;;;;;6180722;22;20012;-55
2023/05/27 02:16:57;;;;;;;10.60;9.60;;;18.90;96.20;;;;;;6180377;22;20421;-57
2023/05/27 02:19:24;;;;;;;10.63;9.52;;;18.90;96.10;;;;;;6180752;22;20009;-56
2023/05/27 02:21:50;;;;;;;9.23;8.20;;;18.90;96.10;;;;;;6180166;22;20080;-56
2023/05/27 02:24:16;;;;;;;9.93;8.93;;;18.90;96.20;;;;;;6180224;22;20043;-53
2023/05/27 02:26:41;;;;;;;9.82;8.93;;;18.90;96.30;;;;;;6180245;22;20415;-54
2023/05/27 02:29:07;;;;;;;9.70;8.70;;;18.90;96.50;;;;;;6179354;22;20009;-58
2023/05/27 02:31:32;;;;;;;8.93;7.70;;;18.90;96.70;;;;;;6179901;22;20142;-55
2023/05/27 02:33:58;;;;;;;8.77;7.43;;;18.90;96.70;;;;;;6179774;22;20012;-56
2023/05/27 02:36:25;;;;;;;9.15;8.23;;;18.90;96.90;;;;;;6179007;22;20005;-55
2023/05/27 02:38:50;;;;;;;9.38;7.72;;;18.90;97.10;;;;;;6179351;22;20016;-55
2023/05/27 02:41:16;;;;;;;8.68;7.70;;;19.00;97.30;;;;;;6180418;22;20076;-55
2023/05/27 02:43:41;;;;;;;8.00;7.20;;;19.00;97.50;;;;;;6178953;22;20076;-55
2023/05/27 02:46:07;;;;;;;8.52;7.72;;;19.00;97.70;;;;;;6179832;22;20062;-55
2023/05/27 02:48:32;;;;;;;8.50;7.70;;;19.00;97.70;;;;;;6180325;22;20178;-55
2023/05/27 02:50:58;;;;;;;7.78;6.97;;;18.90;97.80;;;;;;6179101;22;20488;-55
2023/05/27 02:53:24;;;;;;;8.98;7.72;;;18.90;97.70;;;;;;6180534;22;20009;-55
2023/05/27 02:55:50;;;;;;;8.85;8.05;;;18.90;97.60;;;;;;6179292;22;20095;-57
2023/05/27 02:58:16;;;;;;;9.00;8.10;;;18.90;97.50;;;;;;6179716;22;20454;-56
2023/05/27 03:00:41;;;;;;;8.82;7.93;;;18.90;97.50;;;;;;6180305;22;20008;-55
2023/05/27 03:03:07;;;;;;;9.18;8.18;;;18.90;97.50;;;;;;6179964;22;20006;-54
2023/05/27 03:05:35;;;;;;;8.77;7.88;;;18.90;97.50;;;;;;6180230;22;20001;-54
2023/05/27 03:08:01;;;;;;;8.77;7.85;;;18.90;97.50;;;;;;6180584;22;20009;-56
2023/05/27 03:10:27;;;;;;;8.00;7.25;;;18.90;97.60;;;;;;6180147;22;20001;-56
2023/05/27 03:12:55;;;;;;;8.52;7.63;;;18.90;97.40;;;;;;6180573;22;20015;-56
2023/05/27 03:15:21;;;;;;;9.20;8.23;;;19.00;97.40;;;;;;6180207;22;20425;-56
2023/05/27 03:17:47;;;;;;;8.18;7.38;;;19.00;97.30;;;;;;6180932;22;20012;-55
2023/05/27 03:20:13;;;;;;;8.65;7.80;;;19.00;97.10;;;;;;6180668;22;20082;-53
2023/05/27 03:22:39;;;;;;;7.57;6.78;;;19.10;96.90;;;;;;6181555;22;20701;-57
2023/05/27 03:25:05;;;;;;;7.47;6.78;;;19.10;96.80;;;;;;6181698;22;20010;-55
2023/05/27 03:27:32;;;;;;;8.00;7.20;;;19.20;96.50;;;;;;6180484;22;20047;-57
2023/05/27 03:29:58;;;;;;;7.60;6.28;;;19.20;96.40;;;;;;6181900;22;20012;-56
2023/05/27 03:32:24;;;;;;;7.35;6.65;;;19.30;96.30;;;;;;6181941;22;20009;-56
2023/05/27 03:34:50;;;;;;;7.13;6.43;;;19.30;96.00;;;;;;6182617;22;20345;-55
2023/05/27 03:37:16;;;;;;;8.20;6.95;;;19.40;95.70;;;;;;6181519;22;20009;-55
2023/05/27 03:39:41;;;;;;;7.53;6.82;;;19.40;95.30;;;;;;6181006;22;20012;-55
2023/05/27 03:42:07;;;;;;;8.23;7.10;;;19.50;95.10;;;;;;6181794;22;20084;-58
2023/05/27 03:44:33;;;;;;;8.20;7.22;;;19.50;94.90;;;;;;6180962;22;20001;-55
2023/05/27 03:47:01;;;;;;;7.78;7.03;;;19.50;94.70;;;;;;6181328;22;20011;-53
2023/05/27 03:49:26;;;;;;;8.60;7.80;;;19.60;94.60;;;;;;6182977;22;20345;-54
2023/05/27 03:51:52;;;;;;;7.95;7.13;;;19.60;94.50;;;;;;6182828;22;20001;-57
2023/05/27 03:54:18;;;;;;;7.22;6.53;;;19.60;94.40;;;;;;6181777;22;20008;-55
2023/05/27 03:56:43;;;;;;;7.20;6.35;;;19.80;94.50;;;;;;6181782;22;20456;-55
2023/05/27 03:59:09;;;;;;;7.22;6.53;;;19.90;94.20;;;;;;6181320;22;20009;-56
2023/05/27 04:01:35;;;;;;;7.63;6.85;;;20.10;93.90;;;;;;6181581;22;20009;-56
2023/05/27 04:04:01;;;;;;;7.28;6.57;;;20.30;93.30;;;;;;6180522;22;20005;-56
2023/05/27 04:06:26;;;;;;;6.80;6.10;;;20.40;92.60;;;;;;6181142;22;20572;-57
2023/05/27 04:08:52;;;;;;;6.20;5.60;;;20.50;92.10;;;;;;6181315;22;20001;-55
2023/05/27 04:11:18;;;;;;;5.85;5.32;;;20.90;92.50;;;;;;6182120;22;20001;-56
2023/05/27 04:13:43;;;;;;;6.60;5.97;;;21.50;91.70;;;;;;6181097;22;20033;-56
2023/05/27 04:16:10;;;;;;;6.03;5.25;;;22.10;90.10;;;;;;6181687;22;20475;-55
2023/05/27 04:18:36;;;;;;;7.95;5.35;;;22.70;88.10;;;;;;6180690;22;20023;-57
2023/05/27 04:21:01;;;;;;;4.97;4.40;;;23.50;85.70;;;;;;6181532;22;20005;-56
2023/05/27 04:23:27;;;;;;;5.28;4.78;;;24.30;82.70;;;;;;6286372;22;20468;-56
2023/05/27 04:25:53;;;;;;;5.38;4.88;;;25.10;79.70;;;;;;6182985;22;20008;-55
2023/05/27 04:28:18;;;;;;;5.78;4.57;;;25.70;76.90;;;;;;6182269;22;20005;-56
2023/05/27 04:30:47;;;;;;;5.90;4.95;;;26.10;74.40;;;;;;6182088;22;20005;-55
2023/05/27 04:33:15;;;;;;;5.22;4.72;;;26.10;73.00;;;;;;6182054;22;20005;-56
2023/05/27 04:35:43;;;;;;;4.82;4.35;;;25.90;72.00;;;;;;6180189;22;20028;-56
2023/05/27 04:38:10;;;;;;;6.40;4.85;;;25.60;71.80;;;;;;6180159;22;20016;-56
2023/05/27 04:40:36;;;;;;;5.65;4.57;;;25.30;71.70;;;;;;6181135;22;20008;-55
2023/05/27 04:43:01;;;;;;;5.15;4.65;;;25.00;72.00;;;;;;6179479;23;20529;-56
2023/05/27 04:45:29;;;;;;;5.60;4.60;;;24.80;72.30;;;;;;6179830;22;20028;-55
2023/05/27 04:47:55;;;;;;;6.10;5.20;;;24.50;72.50;;;;;;6180098;22;20078;-57
2023/05/27 04:50:23;;;;;;;6.85;5.00;;;24.20;72.80;;;;;;6181564;22;20102;-57
2023/05/27 04:52:48;;;;;;;5.32;4.75;;;24.00;73.20;;;;;;6182870;22;20005;-56
2023/05/27 04:55:14;;;;;;;5.80;5.18;;;23.80;73.50;;;;;;6182072;22;20224;-54
2023/05/27 04:57:40;;;;;;;7.13;5.60;;;23.70;74.10;;;;;;6180786;23;20005;-55
2023/05/27 05:02:38;;;;;;;6.80;5.70;;;23.40;74.30;;;;;;6179450;22;20080;-55
2023/05/27 05:05:06;;;;;;;5.30;4.80;;;23.30;74.60;;;;;;6180262;23;20001;-55
2023/05/27 05:07:33;;;;;;;5.57;5.07;;;23.10;74.80;;;;;;6181793;22;20009;-57
2023/05/27 05:09:59;;;;;;;7.55;5.80;;;23.00;75.30;;;;;;6180511;22;20001;-54
2023/05/27 05:12:25;;;;;;;6.72;5.65;;;22.90;75.90;;;;;;6180753;22;20009;-56
2023/05/27 05:14:52;;;;;;;5.88;5.35;;;22.70;76.00;;;;;;6180885;22;20016;-54
2023/05/27 05:17:18;;;;;;;6.07;5.47;;;22.70;76.30;;;;;;6180839;23;20035;-55
2023/05/27 05:19:45;;;;;;;6.63;5.95;;;22.60;76.60;;;;;;6181189;22;20007;-55
2023/05/27 05:22:13;;;;;;;8.32;6.00;;;22.50;76.80;;;;;;6181226;22;20009;-55
2023/05/27 05:24:39;;;;;;;6.97;6.07;;;22.40;77.00;;;;;;6180638;22;20072;-55
2023/05/27 05:27:06;;;;;;;6.38;5.78;;;22.40;77.30;;;;;;6180318;22;20040;-55
2023/05/27 05:29:32;;;;;;;6.97;6.28;;;22.40;77.50;;;;;;6181559;22;20479;-53
2023/05/27 05:31:57;;;;;;;7.07;6.38;;;22.30;77.50;;;;;;6284681;22;20040;-56
2023/05/27 05:34:23;;;;;;;7.18;6.47;;;22.20;77.30;;;;;;6181606;22;20005;-56
2023/05/27 05:36:49;;;;;;;7.50;6.80;;;22.30;77.60;;;;;;6181251;23;20001;-54
2023/05/27 05:39:15;;;;;;;7.97;6.95;;;22.20;77.80;;;;;;6180861;22;20012;-57
2023/05/27 05:41:41;;;;;;;7.82;7.13;;;22.20;77.80;;;;;;6180749;22;20001;-53
2023/05/27 05:44:06;;;;;;;7.57;6.15;;;22.10;77.80;;;;;;6180780;22;20009;-57
2023/05/27 05:46:32;;;;;;;7.90;6.65;;;22.10;78.20;;;;;;6181956;22;20478;-54
2023/05/27 05:48:58;;;;;;;7.47;6.78;;;22.10;78.30;;;;;;6181869;22;20027;-55
2023/05/27 05:51:23;;;;;;;9.48;7.22;;;22.10;78.40;;;;;;6181716;22;20005;-55
2023/05/27 05:53:49;;;;;;;7.50;6.72;;;22.10;78.50;;;;;;6180415;22;20456;-54
2023/05/27 05:56:14;;;;;;;8.60;7.70;;;22.10;78.50;;;;;;6181614;22;20012;-55
2023/05/27 05:58:40;;;;;;;7.18;6.47;;;22.10;78.60;;;;;;6180771;22;20005;-55
2023/05/27 06:01:06;;;;;;;7.97;7.18;;;22.10;78.80;;;;;;6179616;22;20110;-54
2023/05/27 06:03:31;;;;;;;8.40;7.57;;;22.20;78.90;;;;;;6181432;22;20001;-55
2023/05/27 06:05:57;;;;;;;9.40;7.93;;;22.20;79.00;;;;;;6180519;22;20036;-56
2023/05/27 06:08:22;;;;;;;8.07;7.28;;;22.20;78.70;;;;;;6181174;22;20325;-56
2023/05/27 06:10:48;;;;;;;8.48;7.68;;;22.20;78.60;;;;;;6181485;22;20056;-55
2023/05/27 06:13:14;;;;;;;8.02;7.25;;;22.30;78.60;;;;;;6180813;22;20032;-57
2023/05/27 06:15:39;;;;;;;8.80;7.90;;;22.30;78.60;;;;;;6179744;22;20535;-56
2023/05/27 06:18:05;;;;;;;8.68;7.88;;;22.30;78.60;;;;;;6180005;22;20337;-55
2023/05/27 06:20:31;;;;;;;8.23;7.45;;;22.30;78.70;;;;;;6180119;22;20001;-57
2023/05/27 06:22:56;;;;;;;9.30;8.43;;;22.30;78.80;;;;;;6180359;22;20017;-54
2023/05/27 06:25:22;;;;;;;8.93;8.00;;;22.30;78.90;;;;;;6179960;22;20001;-56
2023/05/27 06:27:48;;;;;;;8.98;8.07;;;22.30;79.00;;;;;;6179638;22;19998;-55
2023/05/27 06:30:14;;;;;;;9.05;8.15;;;22.40;79.30;;;;;;6179712;22;20054;-56
2023/05/27 06:32:39;;;;;;;9.50;8.60;;;22.50;79.30;;;;;;6177804;22;20324;-56
2023/05/27 06:35:05;;;;;;;10.07;8.50;;;22.60;79.20;;;;;;6178691;22;20433;-56
2023/05/27 06:37:31;;;;;;;9.15;8.35;;;22.70;79.10;;;;;;6180262;22;20070;-56
2023/05/27 06:39:56;;;;;;;9.30;8.40;;;22.70;79.10;;;;;;6181397;22;20039;-55
2023/05/27 06:42:22;;;;;;;9.18;8.30;;;22.70;78.70;;;;;;6180664;22;20012;-54
2023/05/27 06:44:48;;;;;;;9.00;7.85;;;22.70;78.90;;;;;;6182249;22;20009;-54
2023/05/27 06:47:14;;;;;;;9.05;8.15;;;22.80;78.70;;;;;;6181044;22;20012;-56
2023/05/27 06:49:40;;;;;;;17.58;15.88;;;22.80;78.60;;;;;;6181094;22;20062;-55
2023/05/27 06:52:06;;;;;;;10.45;9.35;;;22.80;78.20;;;;;;6180385;22;20009;-56
2023/05/27 06:54:32;;;;;;;10.65;9.23;;;22.80;78.00;;;;;;6181700;22;20009;-55
2023/05/27 06:56:58;;;;;;;9.38;8.43;;;22.80;77.80;;;;;;6180392;23;20005;-57
2023/05/27 06:59:23;;;;;;;9.20;8.23;;;22.80;78.00;;;;;;6181489;23;20013;-56
2023/05/27 07:01:49;;;;;;;9.88;8.88;;;22.80;77.80;;;;;;6180324;22;20309;-57
2023/05/27 07:04:18;;;;;;;9.85;8.88;;;22.80;77.70;;;;;;6181107;22;20067;-56
2023/05/27 07:06:43;;;;;;;10.18;8.93;;;22.80;77.70;;;;;;6180480;22;20001;-56
2023/05/27 07:09:11;;;;;;;11.00;9.90;;;22.80;77.80;;;;;;6180487;22;20058;-55
2023/05/27 07:11:36;;;;;;;9.82;8.93;;;22.80;77.90;;;;;;6178628;22;20024;-54
2023/05/27 07:14:02;;;;;;;10.52;8.75;;;22.80;78.00;;;;;;6179025;22;20325;-55
2023/05/27 07:16:28;;;;;;;9.82;8.93;;;22.80;78.80;;;;;;6179055;22;20485;-55
2023/05/27 07:18:53;;;;;;;9.38;8.48;;;22.80;78.10;;;;;;6179069;22;20637;-54
2023/05/27 07:21:19;;;;;;;9.15;7.82;;;22.80;78.00;;;;;;6178826;22;20008;-55
2023/05/27 07:23:44;;;;;;;9.48;8.57;;;22.80;78.00;;;;;;6179920;22;20708;-55
2023/05/27 07:26:10;;;;;;;10.07;8.93;;;22.80;77.90;;;;;;6180884;22;20001;-54
2023/05/27 07:28:37;;;;;;;9.57;8.68;;;22.90;78.00;;;;;;6180933;22;20333;-56
2023/05/27 07:31:03;;;;;;;9.65;8.65;;;22.90;78.10;;;;;;6181261;22;20012;-56
2023/05/27 07:33:29;;;;;;;9.82;8.93;;;22.90;77.90;;;;;;6181069;22;20429;-57
2023/05/27 07:35:54;;;;;;;10.80;9.70;;;22.90;78.00;;;;;;6181709;22;20035;-55
2023/05/27 07:38:20;;;;;;;9.60;8.70;;;22.90;77.70;;;;;;6179679;22;20040;-54
2023/05/27 07:40:45;;;;;;;9.73;8.70;;;22.90;77.60;;;;;;6179481;22;20012;-54
2023/05/27 07:43:11;;;;;;;9.57;8.57;;;22.90;77.50;;;;;;6283202;22;20008;-56
2023/05/27 07:45:37;;;;;;;9.65;8.45;;;23.00;77.50;;;;;;6181139;22;20011;-57
2023/05/27 07:48:02;;;;;;;8.80;7.90;;;23.00;77.60;;;;;;6179574;22;20001;-55
2023/05/27 07:50:28;;;;;;;8.70;7.80;;;23.00;77.60;;;;;;6180504;22;20547;-55
2023/05/27 07:52:54;;;;;;;8.10;7.30;;;23.00;77.30;;;;;;6179783;22;20066;-55
2023/05/27 07:55:20;;;;;;;9.15;7.82;;;23.00;77.20;;;;;;6180601;22;20016;-54
2023/05/27 07:57:46;;;;;;;8.55;7.10;;;23.10;76.70;;;;;;6180569;22;20017;-56
2023/05/27 08:00:12;;;;;;;8.48;7.47;;;23.10;76.50;;;;;;6178241;22;20009;-56
2023/05/27 08:02:38;;;;;;;8.95;8.05;;;23.10;76.20;;;;;;6178951;22;20417;-55
2023/05/27 08:05:04;;;;;;;7.68;6.93;;;23.20;76.60;;;;;;6177889;22;20011;-55
2023/05/27 08:07:30;;;;;;;9.18;7.60;;;23.20;76.80;;;;;;6178990;22;20012;-53
2023/05/27 08:09:56;;;;;;;8.43;7.63;;;23.30;76.40;;;;;;6179705;22;20080;-57
2023/05/27 08:12:21;;;;;;;8.15;7.35;;;23.30;76.10;;;;;;6180423;22;20028;-54
2023/05/27 08:14:49;;;;;;;9.25;7.68;;;23.30;76.20;;;;;;6180934;22;20016;-56
2023/05/27 08:17:15;;;;;;;8.55;7.65;;;23.30;76.70;;;;;;6181441;22;20421;-56
2023/05/27 08:19:41;;;;;;;8.10;7.30;;;23.30;76.40;;;;;;6180983;23;20019;-56
2023/05/27 08:22:09;;;;;;;7.80;6.97;;;23.40;76.30;;;;;;6179214;22;20079;-55
2023/05/27 08:24:35;;;;;;;7.00;6.38;;;23.40;76.30;;;;;;6181990;22;20017;-56
2023/05/27 08:27:02;;;;;;;6.85;6.20;;;23.40;76.50;;;;;;6181337;22;20023;-56
2023/05/27 08:29:30;;;;;;;7.97;6.25;;;23.40;76.30;;;;;;6182692;22;20075;-56
2023/05/27 08:31:56;;;;;;;7.60;6.63;;;23.40;75.70;;;;;;6182305;22;20005;-55
2023/05/27 08:34:22;;;;;;;8.63;6.63;;;23.40;75.30;;;;;;6181658;22;20016;-54
2023/05/27 08:36:47;;;;;;;7.90;6.25;;;23.40;75.20;;;;;;6181802;22;20012;-56
2023/05/27 08:39:13;;;;;;;6.85;6.15;;;23.30;75.00;;;;;;6180189;22;22015;-55
2023/05/27 08:41:40;;;;;;;6.90;6.20;;;23.30;74.60;;;;;;6179919;22;20439;-55
2023/05/27 08:44:06;;;;;;;6.32;5.72;;;23.30;74.40;;;;;;6177041;22;20005;-57
2023/05/27 08:46:32;;;;;;;5.93;5.28;;;23.30;73.30;;;;;;6177021;22;20043;-57
2023/05/27 08:48:58;;;;;;;5.78;5.05;;;23.30;72.00;;;;;;6174502;22;20448;-56
2023/05/27 08:51:25;;;;;;;6.93;4.97;;;23.30;71.10;;;;;;6174698;22;20027;-57
2023/05/27 08:53:50;;;;;;;5.97;5.20;;;23.30;70.50;;;;;;6176617;22;20005;-55
2023/05/27 08:56:19;;;;;;;5.00;4.50;;;23.30;69.90;;;;;;6176666;22;20009;-57
2023/05/27 08:58:45;;;;;;;5.55;4.80;;;23.30;69.70;;;;;;6176243;22;20047;-57
2023/05/27 09:01:12;;;;;;;6.10;4.38;;;23.40;68.80;;;;;;6177270;22;20009;-54
2023/05/27 09:03:38;;;;;;;6.07;4.75;;;23.40;68.50;;;;;;6176808;22;20008;-55
2023/05/27 09:06:04;;;;;;;4.70;4.30;;;23.40;68.20;;;;;;6181213;23;20433;-57
2023/05/27 09:08:31;;;;;;;5.13;4.22;;;23.40;68.10;;;;;;6178135;23;20059;-54
2023/05/27 09:10:57;;;;;;;4.80;4.28;;;23.40;67.30;;;;;;6179292;22;20012;-56
2023/05/27 09:13:30;;;;;;;5.32;4.10;;;23.40;66.90;;;;;;6179623;22;20015;-53
2023/05/27 09:15:59;;;;;;;4.80;3.95;;;23.40;66.10;;;;;;6177314;22;20005;-56
2023/05/27 09:18:27;;;;;;;6.03;4.00;;;23.40;65.90;;;;;;6175519;22;20021;-55
2023/05/27 09:20:55;;;;;;;5.88;4.20;;;23.50;66.00;;;;;;6179628;22;20047;-54
2023/05/27 09:23:21;;;;;;;5.05;4.05;;;23.40;65.40;;;;;;6176820;22;20013;-55
2023/05/27 09:25:47;;;;;;;5.18;4.57;;;23.40;64.40;;;;;;6177878;22;20650;-57
2023/05/27 09:28:20;;;;;;;4.93;3.90;;;23.40;64.70;;;;;;6178342;22;20001;-56
2023/05/27 09:30:47;;;;;;;4.88;4.00;;;23.40;63.80;;;;;;6178963;22;20016;-56
2023/05/27 09:33:13;;;;;;;4.20;3.80;;;23.40;64.10;;;;;;6177383;22;20002;-56
2023/05/27 09:35:42;;;;;;;5.38;4.00;;;23.40;63.80;;;;;;6177884;22;20012;-58
2023/05/27 09:38:08;;;;;;;4.22;3.70;;;23.40;63.80;;;;;;6179154;22;20601;-55
2023/05/27 09:40:37;;;;;;;4.35;3.95;;;23.50;63.70;;;;;;6179326;22;20005;-55
2023/05/27 09:43:03;;;;;;;4.78;4.28;;;23.50;63.50;;;;;;6176929;22;20001;-55
2023/05/27 09:45:29;;;;;;;5.05;4.25;;;23.50;64.10;;;;;;6178909;23;20031;-55
2023/05/27 09:47:56;;;;;;;8.32;4.25;;;23.50;63.20;;;;;;6179242;22;20021;-56
2023/05/27 09:50:22;;;;;;;6.10;4.75;;;23.50;62.40;;;;;;6181279;22;20040;-55
2023/05/27 09:52:48;;;;;;;5.55;4.93;;;23.50;61.60;;;;;;6181774;23;20031;-55
2023/05/27 09:55:16;;;;;;;6.13;5.07;;;23.50;61.10;;;;;;6182210;22;20005;-56
2023/05/27 09:57:42;;;;;;;5.40;4.88;;;23.50;61.30;;;;;;6182785;22;20016;-55
2023/05/27 10:00:15;;;;;;;5.55;4.95;;;23.60;60.40;;;;;;6182207;22;20013;-57
2023/05/27 10:02:51;;;;;;;6.15;5.18;;;23.60;59.60;;;;;;6182040;22;20009;-58
2023/05/27 10:05:20;;;;;;;5.40;4.18;;;23.70;59.80;;;;;;6182146;22;20005;-54
2023/05/27 10:07:46;;;;;;;5.75;3.90;;;23.70;59.30;;;;;;6178909;22;20341;-54
2023/05/27 10:10:14;;;;;;;5.22;3.80;;;23.70;59.00;;;;;;6180404;22;20504;-55
2023/05/27 10:12:43;;;;;;;4.40;3.58;;;23.70;58.90;;;;;;6178275;22;20009;-55
2023/05/27 10:15:09;;;;;;;4.28;3.70;;;23.80;59.30;;;;;;6178441;22;20009;-57
2023/05/27 10:17:55;;;;;;;4.07;3.67;;;23.80;60.20;;;;;;6179346;22;20005;-56
2023/05/27 10:20:34;;;;;;;3.80;3.40;;;23.80;59.90;;;;;;6176870;22;20009;-55
2023/05/27 10:23:10;;;;;;;4.82;3.20;;;23.80;60.50;;;;;;6180000;22;20010;-54
2023/05/27 10:25:40;;;;;;;7.40;3.50;;;23.80;60.80;;;;;;6179156;22;19997;-53
2023/05/27 10:28:07;;;;;;;5.23;3.37;;;23.80;61.00;;;;;;6180591;22;20012;-55
2023/05/27 10:30:45;;;;;;;4.38;3.53;;;23.70;61.10;;;;;;6178367;22;20231;-54
2023/05/27 10:33:12;;;;;;;4.47;3.30;;;23.60;62.00;;;;;;6177910;22;20007;-56
2023/05/27 10:35:43;;;;;;;3.50;3.20;;;23.60;62.40;;;;;;6177336;22;20144;-54
2023/05/27 10:38:16;;;;;;;5.18;3.45;;;23.50;62.90;;;;;;6176582;22;20009;-57
2023/05/27 10:40:43;;;;;;;3.80;3.50;;;23.50;63.30;;;;;;6178137;22;20433;-57
2023/05/27 10:43:16;;;;;;;4.75;3.45;;;23.40;64.10;;;;;;6179279;22;20005;-58
2023/05/27 10:45:42;;;;;;;4.95;4.10;;;23.30;64.20;;;;;;6177909;22;20001;-55
2023/05/27 10:48:30;;;;;;;5.47;4.15;;;23.20;64.80;;;;;;6178434;22;20374;-53
2023/05/27 10:50:58;;;;;;;4.90;3.92;;;23.20;65.00;;;;;;6178885;22;20009;-54
2023/05/27 10:53:26;;;;;;;5.07;4.18;;;23.10;65.20;;;;;;6179108;22;20012;-55
2023/05/27 10:55:52;;;;;;;5.18;4.50;;;23.00;65.50;;;;;;6179269;22;20005;-52
2023/05/27 10:58:18;;;;;;;6.25;4.43;;;22.90;65.50;;;;;;6177897;22;20015;-54
2023/05/27 11:00:47;;;;;;;4.85;4.13;;;22.80;65.30;;;;;;6175983;22;20005;-55
2023/05/27 11:03:24;;;;;;;4.90;4.10;;;22.70;65.50;;;;;;6176850;22;20523;-56
2023/05/27 11:06:01;;;;;;;5.47;4.60;;;22.60;65.80;;;;;;6178002;23;20005;-55
2023/05/27 11:08:27;;;;;;;4.97;4.45;;;22.50;66.30;;;;;;6176899;22;20451;-53
2023/05/27 11:11:03;;;;;;;5.43;4.78;;;22.40;66.40;;;;;;6178026;22;20009;-55
2023/05/27 11:13:47;;;;;;;6.80;4.75;;;22.40;66.40;;;;;;6174778;22;20001;-53
2023/05/27 11:16:14;;;;;;;5.30;4.18;;;22.40;66.70;;;;;;6177646;23;20051;-57
2023/05/27 11:18:41;;;;;;;5.35;4.47;;;22.30;66.80;;;;;;6177766;22;20013;-56
2023/05/27 11:21:09;;;;;;;5.50;4.30;;;22.30;66.60;;;;;;6178991;22;20005;-58
2023/05/27 11:23:48;;;;;;;4.93;4.13;;;22.20;65.90;;;;;;6175355;22;20067;-57
2023/05/27 11:26:23;;;;;;;7.85;5.90;;;22.20;65.80;;;;;;6176910;22;20081;-55
2023/05/27 11:29:01;;;;;;;6.43;5.45;;;22.20;65.80;;;;;;6178282;22;20005;-55
2023/05/27 11:31:28;;;;;;;5.07;4.20;;;22.20;65.70;;;;;;6176679;22;20053;-55
2023/05/27 11:33:54;;;;;;;5.78;4.32;;;22.20;65.70;;;;;;6176334;22;20070;-58
2023/05/27 11:36:21;;;;;;;4.53;3.78;;;22.30;65.60;;;;;;6178082;22;20368;-55
2023/05/27 11:38:52;;;;;;;6.35;4.10;;;22.30;65.40;;;;;;6179661;22;20009;-56
2023/05/27 11:41:20;;;;;;;4.00;3.60;;;22.40;64.60;;;;;;6180103;22;20006;-56
2023/05/27 11:43:56;;;;;;;5.40;3.67;;;22.50;65.10;;;;;;6181926;22;20074;-56
2023/05/27 11:46:22;;;;;;;4.07;3.45;;;22.60;65.00;;;;;;6178974;22;20005;-55
2023/05/27 11:48:48;;;;;;;5.22;3.70;;;22.60;64.40;;;;;;6176121;22;20044;-56
2023/05/27 11:51:14;;;;;;;4.75;3.85;;;22.60;63.30;;;;;;6179023;22;20009;-57
2023/05/27 11:53:46;;;;;;;4.45;3.58;;;22.70;62.50;;;;;;6179210;22;20008;-56
2023/05/27 11:56:13;;;;;;;4.75;3.47;;;22.80;62.00;;;;;;6177633;22;20005;-55
2023/05/27 11:58:39;;;;;;;4.80;3.70;;;22.90;61.50;;;;;;6179442;23;20072;-54
2023/05/27 12:01:05;;;;;;;6.30;3.88;;;22.90;60.70;;;;;;6178670;22;20456;-55
2023/05/27 12:03:33;;;;;;;4.85;4.15;;;23.00;60.30;;;;;;6179695;22;20008;-55
2023/05/27 12:05:59;;;;;;;3.97;3.50;;;23.10;59.40;;;;;;6179475;22;20314;-56
2023/05/27 12:08:25;;;;;;;7.07;3.65;;;23.20;59.10;;;;;;6178628;22;20016;-55
2023/05/27 12:10:53;;;;;;;5.47;3.53;;;23.30;58.50;;;;;;6181201;22;20009;-57
2023/05/27 12:13:21;;;;;;;4.93;3.80;;;23.40;58.50;;;;;;6179603;22;20040;-55
2023/05/27 12:15:47;;;;;;;5.72;4.03;;;23.50;59.00;;;;;;6180116;22;20009;-56
2023/05/27 12:18:13;;;;;;;6.43;4.82;;;23.50;59.20;;;;;;6179728;22;20001;-57
2023/05/27 12:20:38;;;;;;;4.80;4.18;;;23.60;59.30;;;;;;6181134;23;20005;-55
2023/05/27 12:23:04;;;;;;;4.47;4.07;;;23.70;59.10;;;;;;6177749;22;20025;-55
2023/05/27 12:25:30;;;;;;;5.95;3.75;;;23.70;58.70;;;;;;6180847;22;20005;-56
2023/05/27 12:27:56;;;;;;;6.97;3.90;;;23.80;58.40;;;;;;6178342;22;20001;-55
2023/05/27 12:30:22;;;;;;;4.68;3.95;;;23.80;58.00;;;;;;6179437;22;20013;-58
2023/05/27 12:32:47;;;;;;;7.07;5.60;;;23.90;57.70;;;;;;6180190;22;20012;-53
2023/05/27 12:35:13;;;;;;;6.20;5.30;;;23.90;57.50;;;;;;6179972;22;20011;-55
2023/05/27 12:37:39;;;;;;;6.82;5.15;;;23.90;58.20;;;;;;6179292;22;20011;-54
2023/05/27 12:40:09;;;;;;;5.45;4.68;;;23.90;59.10;;;;;;6175604;22;20044;-55
2023/05/27 12:42:34;;;;;;;4.15;3.70;;;23.90;59.20;;;;;;6177870;22;20032;-55
2023/05/27 12:45:00;;;;;;;4.03;3.63;;;23.90;59.30;;;;;;6179068;22;20001;-55
2023/05/27 12:47:26;;;;;;;5.68;3.83;;;23.90;60.00;;;;;;6179307;22;20001;-56